Time;durP1;ratioP1;P1;durP2;ratioP2;P2;SDS_P1;SDS_P2;PMS_P1;PMS_P2;Temp;Humidity;BMP_temperature;BMP_pressure;BME280_temperature;BME280_humidity;BME280_pressure;Samples;Min_cycle;Max_cycle;Signal;HPM_P1;HPM_P2
2022/05/27 00:01:34;;;;;;;2.40;2.30;;;18.50;46.40;;;;;;20491;6860;326564;-82
2022/05/27 00:03:59;;;;;;;2.63;2.23;;;18.60;46.00;;;;;;20704;6860;121594;-84
2022/05/27 00:06:25;;;;;;;2.00;1.90;;;18.50;46.10;;;;;;20476;6860;278633;-81
2022/05/27 00:08:50;;;;;;;1.70;1.60;;;18.50;46.20;;;;;;20707;6860;124353;-81
2022/05/27 00:11:16;;;;;;;2.00;1.90;;;18.30;46.10;;;;;;20508;6860;279895;-84
2022/05/27 00:13:41;;;;;;;2.45;2.20;;;18.40;46.10;;;;;;20490;6860;311576;-81
2022/05/27 00:16:07;;;;;;;2.90;1.90;;;18.60;45.80;;;;;;20666;6860;121481;-82
2022/05/27 00:18:32;;;;;;;2.77;2.00;;;18.40;45.80;;;;;;20707;6860;119068;-82
2022/05/27 00:20:58;;;;;;;2.12;1.90;;;18.10;46.10;;;;;;20706;6860;118056;-84
2022/05/27 00:23:24;;;;;;;2.30;2.10;;;17.80;46.40;;;;;;20531;6860;279369;-82
2022/05/27 00:25:49;;;;;;;2.00;1.80;;;18.00;46.70;;;;;;20701;6860;118640;-83
2022/05/27 00:28:15;;;;;;;2.30;2.10;;;17.90;46.50;;;;;;20690;6860;122087;-82
2022/05/27 00:30:40;;;;;;;2.10;1.80;;;17.70;46.70;;;;;;20709;6860;121020;-82
2022/05/27 00:33:06;;;;;;;2.30;2.10;;;17.50;47.00;;;;;;20490;6860;338979;-82
2022/05/27 00:35:31;;;;;;;2.40;2.20;;;17.70;47.30;;;;;;20709;6860;117014;-82
2022/05/27 00:37:57;;;;;;;2.43;2.23;;;17.60;47.00;;;;;;20704;6860;119535;-82
2022/05/27 00:40:22;;;;;;;2.10;2.00;;;17.40;47.20;;;;;;20488;6860;278683;-82
2022/05/27 00:42:48;;;;;;;2.20;2.10;;;17.60;47.60;;;;;;20704;6860;124077;-82
2022/05/27 00:45:16;;;;;;;2.60;2.30;;;17.60;47.30;;;;;;20489;6860;340478;-81
2022/05/27 00:47:42;;;;;;;3.00;2.10;;;17.70;47.30;;;;;;20486;6860;307727;-82
2022/05/27 00:50:08;;;;;;;2.20;2.00;;;18.00;46.60;;;;;;20686;6859;120458;-82
2022/05/27 00:52:35;;;;;;;2.13;2.03;;;17.90;46.60;;;;;;20696;6860;117541;-83
2022/05/27 00:55:03;;;;;;;2.07;1.97;;;17.60;47.00;;;;;;20705;6860;122621;-82
2022/05/27 00:57:32;;;;;;;2.30;2.20;;;17.30;47.40;;;;;;20481;6860;307775;-81
2022/05/27 00:59:58;;;;;;;2.47;2.27;;;17.50;47.80;;;;;;20494;6860;309448;-81
2022/05/27 01:02:23;;;;;;;2.13;2.03;;;17.80;47.40;;;;;;20460;6860;303965;-82
2022/05/27 01:04:49;;;;;;;2.30;2.10;;;18.00;47.00;;;;;;20705;6860;117903;-82
2022/05/27 01:07:14;;;;;;;2.50;1.93;;;17.80;46.90;;;;;;20703;6860;121073;-84
2022/05/27 01:09:40;;;;;;;2.10;2.00;;;17.50;47.20;;;;;;20486;6860;279267;-81
2022/05/27 01:12:17;;;;;;;2.10;2.00;;;17.90;47.20;;;;;;20457;6860;311772;-81
2022/05/27 01:14:41;;;;;;;2.00;1.70;;;17.80;47.20;;;;;;20692;6860;120108;-83
2022/05/27 01:17:07;;;;;;;2.20;2.10;;;17.70;47.10;;;;;;20460;6860;308717;-82
2022/05/27 01:20:19;;;;;;;2.20;2.00;;;17.60;47.10;;;;;;20674;6860;114951;-81
2022/05/27 01:23:24;;;;;;;2.23;2.03;;;17.60;47.10;;;;;;20693;6860;118947;-81
2022/05/27 01:26:23;;;;;;;3.27;2.20;;;17.20;47.40;;;;;;20700;6860;118773;-82
2022/05/27 01:29:03;;;;;;;2.20;2.10;;;16.90;47.70;;;;;;20482;6860;309617;-81
2022/05/27 01:31:40;;;;;;;2.40;2.30;;;17.10;48.10;;;;;;20410;6860;279536;-82
2022/05/27 01:34:15;;;;;;;2.17;2.07;;;17.50;47.60;;;;;;20439;6860;338294;-82
2022/05/27 01:37:10;;;;;;;2.27;2.07;;;17.70;47.20;;;;;;20400;6860;308717;-82
2022/05/27 01:39:46;;;;;;;2.10;2.00;;;17.90;46.80;;;;;;20694;6860;119565;-82
2022/05/27 01:42:13;;;;;;;2.10;2.00;;;17.60;47.00;;;;;;20672;6860;118223;-82
2022/05/27 01:44:58;;;;;;;3.10;2.30;;;17.00;47.80;;;;;;20695;6860;119325;-81
2022/05/27 01:47:31;;;;;;;2.07;1.97;;;16.90;47.70;;;;;;20702;6860;116444;-83
2022/05/27 01:49:59;;;;;;;2.43;2.33;;;16.80;48.10;;;;;;20405;6860;280247;-83
2022/05/27 01:52:25;;;;;;;2.42;2.22;;;17.00;48.30;;;;;;20444;6860;279432;-82
2022/05/27 01:55:13;;;;;;;4.50;2.20;;;17.30;47.50;;;;;;20680;6860;117860;-83
2022/05/27 01:57:45;;;;;;;2.15;1.98;;;17.20;47.40;;;;;;20479;6860;308357;-83
2022/05/27 02:00:16;;;;;;;2.40;2.20;;;17.30;47.50;;;;;;20418;6859;281753;-82
2022/05/27 02:02:43;;;;;;;2.00;1.90;;;17.50;47.40;;;;;;20469;6860;279429;-82
2022/05/27 02:05:09;;;;;;;2.00;1.90;;;17.80;46.80;;;;;;20465;6860;339524;-82
2022/05/27 02:07:35;;;;;;;1.80;1.70;;;17.80;46.80;;;;;;20691;6860;117694;-83
2022/05/27 02:10:00;;;;;;;2.70;1.92;;;17.60;46.90;;;;;;20468;6860;279114;-83
2022/05/27 02:12:26;;;;;;;1.80;1.70;;;17.60;47.00;;;;;;20671;6860;118388;-82
2022/05/27 02:14:52;;;;;;;2.03;1.87;;;17.40;47.10;;;;;;20456;6860;308775;-83
2022/05/27 02:17:17;;;;;;;3.00;2.05;;;17.40;47.10;;;;;;20478;6860;295090;-83
2022/05/27 02:20:06;;;;;;;2.10;1.98;;;17.60;47.10;;;;;;20471;6860;340882;-82
2022/05/27 02:22:35;;;;;;;2.00;1.90;;;17.80;47.30;;;;;;20481;6860;308583;-82
2022/05/27 02:25:11;;;;;;;2.10;2.00;;;17.80;46.60;;;;;;20476;6860;310053;-82
2022/05/27 02:27:43;;;;;;;2.03;1.93;;;17.90;46.40;;;;;;20472;6860;311033;-82
2022/05/27 02:30:08;;;;;;;2.10;2.00;;;17.90;45.90;;;;;;20424;6860;309104;-82
2022/05/27 02:32:40;;;;;;;2.97;2.00;;;17.90;46.00;;;;;;20480;6860;309159;-85
2022/05/27 02:35:08;;;;;;;2.83;1.80;;;17.80;46.00;;;;;;20690;6860;117462;-82
2022/05/27 02:37:48;;;;;;;3.53;2.00;;;17.50;46.50;;;;;;20705;6860;117765;-82
2022/05/27 02:40:15;;;;;;;1.80;1.70;;;16.60;47.90;;;;;;20646;6860;118243;-81
2022/05/27 02:42:41;;;;;;;1.80;1.70;;;16.60;47.90;;;;;;20607;6860;116728;-82
2022/05/27 02:45:13;;;;;;;2.00;1.90;;;16.40;48.30;;;;;;20457;6860;279851;-82
2022/05/27 02:47:41;;;;;;;2.17;2.00;;;16.50;48.60;;;;;;20478;6860;310502;-83
2022/05/27 02:50:26;;;;;;;2.10;2.00;;;16.90;48.00;;;;;;20610;6860;119674;-82
2022/05/27 02:53:12;;;;;;;2.00;1.90;;;16.80;47.80;;;;;;20468;6860;280589;-83
2022/05/27 02:55:57;;;;;;;2.15;2.05;;;16.80;47.90;;;;;;20490;6860;290420;-83
2022/05/27 02:58:24;;;;;;;1.80;1.70;;;17.10;47.60;;;;;;20666;6860;191411;-83
2022/05/27 03:00:50;;;;;;;1.90;1.80;;;16.90;47.80;;;;;;20483;6860;279890;-83
2022/05/27 03:03:15;;;;;;;3.70;2.10;;;16.90;47.90;;;;;;20698;6860;121038;-85
2022/05/27 03:05:47;;;;;;;1.85;1.75;;;16.70;47.90;;;;;;20490;6860;312176;-80
2022/05/27 03:08:19;;;;;;;1.70;1.70;;;16.50;48.40;;;;;;20653;6860;123048;-83
2022/05/27 03:10:59;;;;;;;1.90;1.80;;;16.20;48.70;;;;;;20680;6860;117580;-84
2022/05/27 03:13:25;;;;;;;2.40;1.93;;;16.20;48.70;;;;;;20706;6859;117717;-81
2022/05/27 03:16:04;;;;;;;2.20;2.10;;;15.90;49.20;;;;;;20465;6860;337761;-83
2022/05/27 03:18:35;;;;;;;2.40;2.20;;;16.10;49.40;;;;;;20497;6860;279848;-83
2022/05/27 03:21:24;;;;;;;2.30;2.20;;;16.40;49.00;;;;;;20457;6860;307799;-84
2022/05/27 03:24:00;;;;;;;2.70;2.10;;;16.70;48.60;;;;;;20491;6860;297002;-81
2022/05/27 03:26:45;;;;;;;2.92;2.30;;;16.80;48.20;;;;;;20477;6860;301444;-83
2022/05/27 03:29:17;;;;;;;2.10;2.00;;;16.90;47.90;;;;;;20695;6860;120688;-83
2022/05/27 03:31:43;;;;;;;2.27;2.17;;;16.60;48.20;;;;;;20493;6860;280364;-82
2022/05/27 03:34:08;;;;;;;2.20;2.10;;;16.50;48.50;;;;;;20419;6860;312388;-81
2022/05/27 03:36:37;;;;;;;2.30;2.10;;;16.70;48.40;;;;;;20700;6860;117060;-84
2022/05/27 03:39:15;;;;;;;2.00;1.90;;;16.50;48.50;;;;;;20541;6860;336276;-85
2022/05/27 03:41:47;;;;;;;1.90;1.80;;;16.50;48.50;;;;;;20816;6655;67627;-83
2022/05/27 03:44:26;;;;;;;2.60;1.90;;;16.30;48.60;;;;;;20757;6783;117147;-83
2022/05/27 03:46:58;;;;;;;2.13;1.93;;;16.10;49.20;;;;;;20789;6776;117202;-81
2022/05/27 03:49:36;;;;;;;1.90;1.80;;;15.90;49.50;;;;;;20558;6783;308959;-83
2022/05/27 03:52:19;;;;;;;2.07;1.97;;;16.50;48.80;;;;;;20451;6768;279694;-82
2022/05/27 03:54:54;;;;;;;2.00;1.90;;;16.40;48.70;;;;;;20544;6791;309113;-81
2022/05/27 03:57:30;;;;;;;2.12;2.00;;;16.80;48.40;;;;;;20683;6754;296594;-82
2022/05/27 04:00:06;;;;;;;3.00;1.90;;;17.10;47.60;;;;;;20612;6757;311893;-82
2022/05/27 04:02:42;;;;;;;2.73;1.90;;;17.10;47.60;;;;;;20697;6768;117931;-82
2022/05/27 04:05:18;;;;;;;2.53;2.00;;;16.80;47.80;;;;;;20553;6789;309518;-81
2022/05/27 04:07:54;;;;;;;1.80;1.70;;;17.10;47.80;;;;;;20640;6752;306709;-81
2022/05/27 04:10:30;;;;;;;1.77;1.60;;;17.10;47.80;;;;;;20833;6750;125101;-82
2022/05/27 04:13:06;;;;;;;1.80;1.70;;;16.80;47.80;;;;;;20853;6753;117179;-83
2022/05/27 04:15:43;;;;;;;1.93;1.83;;;16.70;48.50;;;;;;20618;6768;304565;-81
2022/05/27 04:18:18;;;;;;;1.83;1.70;;;16.70;48.50;;;;;;20568;6775;279087;-81
2022/05/27 04:20:56;;;;;;;1.85;1.75;;;17.30;47.70;;;;;;20556;6776;310210;-82
2022/05/27 04:23:32;;;;;;;1.83;1.73;;;17.30;47.60;;;;;;20750;6779;117276;-82
2022/05/27 04:26:07;;;;;;;2.43;1.70;;;17.10;47.60;;;;;;20744;6784;117204;-81
2022/05/27 04:28:43;;;;;;;1.60;1.50;;;16.80;48.10;;;;;;20754;6784;117852;-82
2022/05/27 04:31:19;;;;;;;1.90;1.80;;;16.80;48.60;;;;;;20548;6767;308767;-82
2022/05/27 04:33:55;;;;;;;1.92;1.83;;;16.70;48.40;;;;;;20675;6748;309167;-83
2022/05/27 04:36:31;;;;;;;2.40;2.00;;;17.10;48.10;;;;;;20644;6754;276836;-82
2022/05/27 04:39:07;;;;;;;2.00;1.80;;;17.40;47.60;;;;;;20595;6785;307764;-82
2022/05/27 04:41:43;;;;;;;2.10;2.00;;;17.70;47.10;;;;;;20568;6752;309833;-82
2022/05/27 04:44:18;;;;;;;1.63;1.57;;;17.80;46.80;;;;;;20835;6755;142074;-82
2022/05/27 04:46:55;;;;;;;2.50;1.87;;;17.70;47.30;;;;;;20647;6754;337592;-82
2022/05/27 04:49:50;;;;;;;1.77;1.67;;;17.70;47.80;;;;;;20861;6754;116737;-83
2022/05/27 04:52:26;;;;;;;1.90;1.80;;;17.50;47.80;;;;;;20493;6754;311637;-81
2022/05/27 04:55:02;;;;;;;1.80;1.70;;;17.60;47.60;;;;;;20907;6738;118097;-81
2022/05/27 04:57:37;;;;;;;3.87;1.77;;;17.50;47.70;;;;;;20878;6744;116986;-81
2022/05/27 05:00:34;;;;;;;2.00;1.90;;;17.30;48.10;;;;;;20594;6769;277974;-81
2022/05/27 05:03:08;;;;;;;2.07;1.97;;;17.40;48.30;;;;;;20649;6753;299098;-82
2022/05/27 05:05:45;;;;;;;2.27;2.03;;;17.60;47.90;;;;;;20819;6755;117302;-82
2022/05/27 05:08:22;;;;;;;1.90;1.80;;;17.60;47.90;;;;;;20586;6772;307724;-82
2022/05/27 05:10:57;;;;;;;2.37;2.17;;;17.70;48.10;;;;;;20829;6755;117221;-81
2022/05/27 05:13:33;;;;;;;2.00;1.80;;;17.70;48.20;;;;;;20679;6744;305685;-82
2022/05/27 05:16:08;;;;;;;1.80;1.70;;;17.80;48.10;;;;;;20864;6744;117548;-82
2022/05/27 05:18:44;;;;;;;2.03;1.93;;;17.80;48.00;;;;;;20823;6763;116712;-82
2022/05/27 05:21:20;;;;;;;2.40;2.20;;;17.90;48.20;;;;;;20493;6792;280584;-82
2022/05/27 05:23:56;;;;;;;2.17;2.00;;;17.90;48.20;;;;;;20855;6751;116412;-82
2022/05/27 05:26:32;;;;;;;1.83;1.73;;;17.90;47.80;;;;;;20810;6769;122418;-82
2022/05/27 05:29:08;;;;;;;1.95;1.85;;;17.80;48.10;;;;;;20581;6776;304894;-82
2022/05/27 05:31:45;;;;;;;2.17;2.00;;;18.10;47.80;;;;;;20688;6776;117731;-81
2022/05/27 05:34:22;;;;;;;2.97;1.83;;;18.20;47.60;;;;;;20771;6789;117526;-83
2022/05/27 05:36:57;;;;;;;2.00;1.90;;;18.10;47.70;;;;;;20609;6769;307626;-82
2022/05/27 05:39:33;;;;;;;2.10;1.87;;;18.40;47.30;;;;;;20843;6766;116884;-82
2022/05/27 05:42:09;;;;;;;2.00;1.90;;;18.40;47.30;;;;;;20487;6756;281772;-81
2022/05/27 05:44:45;;;;;;;2.40;1.90;;;18.70;47.40;;;;;;20811;6771;117578;-81
2022/05/27 05:47:21;;;;;;;2.10;1.90;;;18.70;47.20;;;;;;20750;6770;271240;-84
2022/05/27 05:49:58;;;;;;;2.93;2.00;;;18.60;47.30;;;;;;20833;6769;117453;-81
2022/05/27 05:52:34;;;;;;;2.33;2.20;;;18.50;47.60;;;;;;20445;6777;280682;-82
2022/05/27 05:55:09;;;;;;;1.97;1.87;;;18.80;47.30;;;;;;20635;6764;287910;-81
2022/05/27 05:57:45;;;;;;;4.00;1.90;;;19.20;47.20;;;;;;20830;6764;117049;-81
2022/05/27 06:00:24;;;;;;;2.40;2.20;;;19.20;46.30;;;;;;20590;6764;310620;-82
2022/05/27 06:02:59;;;;;;;2.20;2.07;;;19.30;45.80;;;;;;20454;6820;308738;-83
2022/05/27 06:05:37;;;;;;;2.33;2.20;;;19.60;45.50;;;;;;20621;6766;307829;-84
2022/05/27 06:08:11;;;;;;;2.47;2.30;;;19.80;45.30;;;;;;20588;6766;308325;-84
2022/05/27 06:10:48;;;;;;;1.63;1.63;;;20.00;45.10;;;;;;20855;6764;121135;-83
2022/05/27 06:13:26;;;;;;;2.35;2.25;;;19.80;45.20;;;;;;20664;6760;306313;-82
2022/05/27 06:15:59;;;;;;;2.13;2.00;;;19.80;45.40;;;;;;20879;6760;118151;-85
2022/05/27 06:18:36;;;;;;;1.87;1.77;;;19.70;45.60;;;;;;20821;6777;116238;-83
2022/05/27 06:21:12;;;;;;;2.10;1.90;;;19.50;45.90;;;;;;20522;6830;340156;-83
2022/05/27 06:23:48;;;;;;;3.57;1.90;;;19.70;46.30;;;;;;20842;6780;117256;-82
2022/05/27 06:26:24;;;;;;;2.20;2.00;;;19.70;46.30;;;;;;20632;6781;306102;-86
2022/05/27 06:34:52;;;;;;;1.90;1.80;;;19.80;46.70;;;;;;20946;6756;68034;-89
2022/05/27 06:37:29;;;;;;;2.20;2.00;;;19.70;47.00;;;;;;20985;6738;66745;-84
2022/05/27 06:40:06;;;;;;;2.10;2.00;;;19.70;47.10;;;;;;20920;6738;117338;-86
2022/05/27 06:42:41;;;;;;;2.10;2.00;;;19.70;47.10;;;;;;20640;6781;119021;-84
2022/05/27 06:45:19;;;;;;;2.73;2.23;;;19.70;46.80;;;;;;20804;6780;117394;-84
2022/05/27 06:47:55;;;;;;;1.90;1.80;;;19.70;46.80;;;;;;20894;6751;116588;-85
2022/05/27 06:50:33;;;;;;;2.27;2.17;;;19.80;46.90;;;;;;20845;6765;117011;-90
2022/05/27 06:53:06;;;;;;;1.93;1.83;;;19.90;46.80;;;;;;20811;6774;117113;-86
2022/05/27 06:55:49;;;;;;;2.37;2.17;;;20.40;46.30;;;;;;20653;6759;306364;-84
2022/05/27 06:58:26;;;;;;;2.20;2.10;;;20.80;45.30;;;;;;20610;6766;335999;-84
2022/05/27 07:01:01;;;;;;;2.10;2.00;;;20.80;45.30;;;;;;20756;6780;120980;-84
2022/05/27 07:03:37;;;;;;;2.00;1.90;;;20.80;45.00;;;;;;20813;6779;117652;-86
2022/05/27 07:06:12;;;;;;;2.03;1.73;;;20.60;45.20;;;;;;20822;6790;117883;-85
2022/05/27 07:08:48;;;;;;;2.20;2.10;;;20.40;45.40;;;;;;20649;6758;277701;-84
2022/05/27 07:11:24;;;;;;;2.10;2.00;;;20.70;46.10;;;;;;20547;6763;325972;-86
2022/05/27 07:13:59;;;;;;;2.37;2.27;;;21.00;44.40;;;;;;20555;6796;279092;-86
2022/05/27 07:16:35;;;;;;;2.42;2.22;;;21.30;43.90;;;;;;20683;6747;335897;-84
2022/05/27 07:19:10;;;;;;;1.70;1.60;;;21.60;43.90;;;;;;20877;6747;116952;-83
2022/05/27 07:21:46;;;;;;;2.00;1.90;;;21.30;43.90;;;;;;20732;6781;119163;-83
2022/05/27 07:24:22;;;;;;;2.10;2.00;;;21.00;44.50;;;;;;20801;6777;119165;-83
2022/05/27 07:26:57;;;;;;;2.40;2.20;;;20.70;44.90;;;;;;20717;6744;276587;-83
2022/05/27 07:29:33;;;;;;;2.03;1.77;;;20.90;44.80;;;;;;20914;6744;116898;-84
2022/05/27 07:32:13;;;;;;;2.30;2.10;;;20.80;44.70;;;;;;20562;6744;306998;-86
2022/05/27 07:34:46;;;;;;;2.50;2.30;;;21.00;45.00;;;;;;20701;6746;276663;-85
2022/05/27 07:37:20;;;;;;;2.30;2.00;;;21.20;44.30;;;;;;20698;6746;308660;-84
2022/05/27 07:39:58;;;;;;;2.10;2.00;;;21.50;43.70;;;;;;20654;6759;337813;-84
2022/05/27 07:42:34;;;;;;;2.07;1.90;;;21.50;43.70;;;;;;20644;6777;118592;-84
2022/05/27 07:45:10;;;;;;;1.93;1.60;;;21.30;44.10;;;;;;20804;6777;118288;-84
2022/05/27 07:47:45;;;;;;;2.00;1.90;;;21.00;44.50;;;;;;20685;6814;116907;-84
2022/05/27 07:50:22;;;;;;;2.93;2.23;;;20.90;44.50;;;;;;20485;6803;311800;-83
2022/05/27 07:52:57;;;;;;;3.47;1.90;;;20.90;44.50;;;;;;20638;6830;117608;-85
2022/05/27 07:55:33;;;;;;;2.30;2.20;;;20.90;44.30;;;;;;20810;6781;116475;-83
2022/05/27 07:58:08;;;;;;;2.30;2.20;;;20.70;44.40;;;;;;20801;6777;123120;-85
2022/05/27 08:00:44;;;;;;;2.00;1.90;;;20.40;44.40;;;;;;20566;6784;306896;-85
2022/05/27 08:03:20;;;;;;;2.20;2.00;;;20.70;45.20;;;;;;20588;6774;307656;-84
2022/05/27 08:05:58;;;;;;;2.63;2.00;;;21.00;44.20;;;;;;20667;6764;306205;-82
2022/05/27 08:08:30;;;;;;;2.70;2.10;;;21.30;44.10;;;;;;20759;6843;124436;-83
2022/05/27 08:11:07;;;;;;;2.07;1.80;;;21.30;43.90;;;;;;20796;6771;117108;-84
2022/05/27 08:13:44;;;;;;;2.70;2.03;;;21.30;45.40;;;;;;20711;6745;280618;-84
2022/05/27 08:16:19;;;;;;;2.40;2.20;;;21.30;44.60;;;;;;20619;6749;308190;-82
2022/05/27 08:18:55;;;;;;;2.07;1.97;;;21.70;43.70;;;;;;20897;6748;117156;-83
2022/05/27 08:21:30;;;;;;;2.00;1.90;;;21.70;43.50;;;;;;20761;6763;118429;-83
2022/05/27 08:24:10;;;;;;;2.17;2.07;;;21.20;44.50;;;;;;20906;6753;117062;-84
2022/05/27 08:26:42;;;;;;;2.00;1.90;;;21.20;43.80;;;;;;20595;6834;280184;-83
2022/05/27 08:29:21;;;;;;;2.10;1.90;;;21.40;44.60;;;;;;20574;6839;279007;-85
2022/05/27 08:32:03;;;;;;;2.10;1.90;;;21.80;43.60;;;;;;20498;6779;308746;-85
2022/05/27 08:41:04;;;;;;;2.42;2.22;;;22.10;42.10;;;;;;20627;6758;276113;-84
2022/05/27 08:43:58;;;;;;;2.07;1.93;;;22.00;42.20;;;;;;20893;6749;117109;-84
2022/05/27 08:46:36;;;;;;;2.10;2.00;;;21.50;42.70;;;;;;20850;6749;117617;-83
2022/05/27 08:49:12;;;;;;;2.27;1.87;;;21.10;43.60;;;;;;20852;6758;117529;-83
2022/05/27 08:51:49;;;;;;;2.40;1.70;;;20.80;44.20;;;;;;20772;6749;117015;-84
2022/05/27 08:54:27;;;;;;;2.30;2.10;;;20.70;45.50;;;;;;20806;6764;119700;-84
2022/05/27 09:00:14;;;;;;;2.47;2.20;;;20.60;44.40;;;;;;20566;6794;279890;-83
2022/05/27 09:02:57;;;;;;;3.50;2.20;;;20.90;43.60;;;;;;20640;6779;118155;-85
2022/05/27 09:05:36;;;;;;;1.93;1.83;;;20.80;43.50;;;;;;20820;6791;117522;-83
2022/05/27 09:08:15;;;;;;;2.40;2.20;;;20.70;44.00;;;;;;20613;6766;336141;-85
2022/05/27 09:11:12;;;;;;;2.67;2.10;;;20.70;44.00;;;;;;20864;6752;117442;-83
2022/05/27 09:14:00;;;;;;;2.00;1.90;;;20.70;43.70;;;;;;20829;6781;117147;-84
2022/05/27 09:16:55;;;;;;;2.33;2.00;;;20.60;44.00;;;;;;20829;6766;116924;-83
2022/05/27 09:19:37;;;;;;;2.10;1.90;;;20.60;44.30;;;;;;20662;6760;278560;-83
2022/05/27 09:22:23;;;;;;;2.47;2.27;;;21.00;44.60;;;;;;20520;6760;310570;-84
2022/05/27 09:25:22;;;;;;;2.00;1.90;;;21.50;43.80;;;;;;20487;6831;113892;-83
2022/05/27 09:27:57;;;;;;;2.13;2.03;;;21.60;43.30;;;;;;20832;6771;119111;-84
2022/05/27 09:30:33;;;;;;;1.63;1.53;;;21.60;43.60;;;;;;20527;6822;119474;-84
2022/05/27 09:33:10;;;;;;;1.70;1.70;;;21.70;44.10;;;;;;20800;6776;119205;-83
2022/05/27 09:35:48;;;;;;;1.90;1.80;;;21.90;43.60;;;;;;20889;6756;117051;-83
2022/05/27 09:38:24;;;;;;;2.07;1.90;;;22.00;43.30;;;;;;20649;6756;280866;-84
2022/05/27 09:41:10;;;;;;;2.25;2.05;;;22.70;41.00;;;;;;20642;6756;279677;-84
2022/05/27 09:43:46;;;;;;;1.92;1.80;;;23.00;41.00;;;;;;20654;6771;341152;-84
2022/05/27 09:46:27;;;;;;;1.80;1.70;;;23.00;41.00;;;;;;20659;6756;307939;-84
2022/05/27 09:49:05;;;;;;;1.80;1.70;;;23.30;40.40;;;;;;20875;6757;117175;-84
2022/05/27 09:51:41;;;;;;;3.10;2.00;;;23.20;40.70;;;;;;20774;6757;117532;-84
2022/05/27 09:54:42;;;;;;;1.80;1.70;;;23.10;41.30;;;;;;20686;6760;309223;-84
2022/05/27 09:57:23;;;;;;;1.77;1.70;;;23.40;41.40;;;;;;20905;6742;117153;-87
2022/05/27 10:00:00;;;;;;;2.07;1.70;;;23.70;41.40;;;;;;20918;6757;117104;-84
2022/05/27 10:02:36;;;;;;;2.10;1.90;;;23.80;41.00;;;;;;20509;6741;338262;-85
2022/05/27 10:05:14;;;;;;;2.07;1.70;;;24.30;40.20;;;;;;20682;6756;306622;-83
2022/05/27 10:07:51;;;;;;;2.03;1.90;;;24.70;39.70;;;;;;20879;6753;117287;-85
2022/05/27 10:10:31;;;;;;;1.77;1.67;;;24.60;38.40;;;;;;20802;6760;120639;-85
2022/05/27 10:13:12;;;;;;;2.30;1.80;;;24.60;38.40;;;;;;20844;6772;74892;-85
2022/05/27 10:15:48;;;;;;;2.07;1.70;;;24.30;38.60;;;;;;20678;6760;307619;-86
2022/05/27 10:18:24;;;;;;;2.10;1.80;;;24.30;38.70;;;;;;20663;6767;307218;-86
2022/05/27 10:21:06;;;;;;;1.50;1.40;;;24.50;39.20;;;;;;20914;6643;119402;-87
2022/05/27 10:23:41;;;;;;;1.43;1.33;;;24.50;39.20;;;;;;20950;6756;66839;-87
2022/05/27 10:26:27;;;;;;;1.40;1.40;;;23.80;39.60;;;;;;20952;6756;116989;-87
2022/05/27 10:29:13;;;;;;;2.03;1.50;;;23.50;39.70;;;;;;20921;6741;117044;-84
2022/05/27 10:31:53;;;;;;;1.77;1.67;;;23.50;39.50;;;;;;20633;6741;279111;-83
2022/05/27 10:34:38;;;;;;;1.67;1.57;;;23.60;39.60;;;;;;20706;6741;305188;-84
2022/05/27 10:37:34;;;;;;;1.57;1.47;;;23.80;39.80;;;;;;20934;6741;118811;-86
2022/05/27 10:40:16;;;;;;;1.80;1.70;;;23.80;39.90;;;;;;20705;6741;305690;-84
2022/05/27 10:43:01;;;;;;;1.90;1.80;;;23.90;39.80;;;;;;20716;6742;118503;-83
2022/05/27 10:45:47;;;;;;;2.03;1.87;;;24.00;40.00;;;;;;20732;6742;277370;-84
2022/05/27 10:48:43;;;;;;;1.77;1.67;;;24.20;40.40;;;;;;20707;6742;292222;-84
2022/05/27 10:51:40;;;;;;;1.73;1.60;;;24.60;39.30;;;;;;20651;6742;279227;-85
2022/05/27 10:54:22;;;;;;;2.12;1.55;;;25.00;38.60;;;;;;20709;6742;278750;-84
2022/05/27 11:03:28;;;;;;;3.13;1.53;;;24.40;39.10;;;;;;20936;6742;122124;-84
2022/05/27 11:06:07;;;;;;;1.57;1.50;;;24.40;39.10;;;;;;20928;6742;117471;-87
2022/05/27 11:09:02;;;;;;;1.67;1.57;;;24.20;39.10;;;;;;20732;6742;277231;-87
2022/05/27 11:11:59;;;;;;;4.90;1.60;;;24.50;37.80;;;;;;20623;6742;311528;-87
2022/05/27 11:15:11;;;;;;;1.50;1.40;;;24.50;37.80;;;;;;20930;6741;117826;-84
2022/05/27 11:17:56;;;;;;;1.60;1.50;;;24.30;38.00;;;;;;19664;7091;289474;-84
2022/05/27 11:21:05;;;;;;;1.37;1.33;;;24.30;38.90;;;;;;20462;6798;305780;-85
2022/05/27 11:24:24;;;;;;;3.97;1.70;;;24.60;37.50;;;;;;20938;6742;116663;-83
2022/05/27 11:27:15;;;;;;;1.00;1.00;;;24.60;37.40;;;;;;20935;6742;119296;-84
2022/05/27 11:30:04;;;;;;;2.53;1.10;;;24.30;38.10;;;;;;20910;6798;116057;-84
2022/05/27 11:33:12;;;;;;;1.10;1.10;;;24.20;37.60;;;;;;20782;6742;120303;-85
2022/05/27 11:35:58;;;;;;;1.53;1.27;;;24.10;37.70;;;;;;20978;6741;120064;-86
2022/05/27 11:38:33;;;;;;;2.40;1.10;;;24.00;37.60;;;;;;20955;6741;116072;-85
2022/05/27 11:41:32;;;;;;;1.13;1.03;;;23.90;37.50;;;;;;20910;6741;116448;-87
2022/05/27 11:44:18;;;;;;;1.37;1.30;;;23.80;37.10;;;;;;20723;6741;308628;-86
2022/05/27 11:46:54;;;;;;;1.45;1.20;;;24.00;35.70;;;;;;20765;6741;317774;-85
2022/05/27 11:49:44;;;;;;;1.10;1.00;;;24.30;36.20;;;;;;20968;6741;117460;-84
2022/05/27 11:52:39;;;;;;;0.90;0.90;;;24.30;36.30;;;;;;20817;6741;116846;-86
2022/05/27 11:55:39;;;;;;;1.40;1.30;;;24.20;36.40;;;;;;20756;6742;286141;-85
2022/05/27 11:58:15;;;;;;;1.97;1.30;;;24.50;36.10;;;;;;20706;6742;276669;-86
2022/05/27 12:00:54;;;;;;;1.37;1.27;;;24.50;36.10;;;;;;20686;6742;278202;-86
2022/05/27 12:03:49;;;;;;;2.43;1.00;;;24.70;35.80;;;;;;20939;6742;117151;-85
2022/05/27 12:06:58;;;;;;;1.53;1.07;;;24.50;36.00;;;;;;20925;6742;117310;-84
2022/05/27 12:09:40;;;;;;;1.67;1.17;;;24.30;36.60;;;;;;20727;6742;294106;-85
2022/05/27 12:12:12;;;;;;;1.17;1.17;;;24.50;37.00;;;;;;20781;6742;118258;-85
2022/05/27 12:14:50;;;;;;;2.83;0.93;;;24.50;36.50;;;;;;20952;6742;117174;-83
2022/05/27 12:17:41;;;;;;;1.50;1.30;;;24.40;36.40;;;;;;20723;6742;278585;-84
2022/05/27 12:20:20;;;;;;;1.53;1.43;;;24.50;36.30;;;;;;20915;6742;118138;-84
2022/05/27 12:22:55;;;;;;;2.22;2.03;;;24.50;36.30;;;;;;20530;6801;308602;-83
2022/05/27 12:25:32;;;;;;;1.57;1.30;;;24.60;36.20;;;;;;20920;6742;116955;-83
2022/05/27 12:28:08;;;;;;;1.00;1.00;;;24.60;36.50;;;;;;20906;6742;117433;-83
2022/05/27 12:30:44;;;;;;;1.37;1.27;;;24.60;35.90;;;;;;20673;6742;306882;-84
2022/05/27 12:33:20;;;;;;;1.40;1.00;;;24.60;35.90;;;;;;20915;6742;121171;-85
2022/05/27 12:36:20;;;;;;;1.80;1.20;;;24.60;36.10;;;;;;20953;6742;118558;-88
2022/05/27 12:38:57;;;;;;;1.07;1.07;;;24.40;36.60;;;;;;20953;6742;117116;-84
2022/05/27 12:41:31;;;;;;;1.07;1.07;;;24.30;36.80;;;;;;20844;6742;117371;-85
2022/05/27 12:44:19;;;;;;;1.10;1.10;;;24.20;36.60;;;;;;20916;6742;118082;-84
2022/05/27 12:46:59;;;;;;;1.23;1.12;;;24.30;37.80;;;;;;20734;6741;312112;-85
2022/05/27 12:49:38;;;;;;;1.00;1.00;;;24.30;37.70;;;;;;20930;6741;117556;-84
2022/05/27 12:52:30;;;;;;;1.23;1.13;;;24.40;37.20;;;;;;20549;6741;309346;-87
2022/05/27 12:55:12;;;;;;;1.40;1.00;;;24.50;37.00;;;;;;20929;6798;117152;-84
2022/05/27 13:01:00;;;;;;;1.30;1.20;;;24.30;36.70;;;;;;20700;6741;276089;-84
2022/05/27 13:03:36;;;;;;;1.30;1.20;;;24.50;36.90;;;;;;20956;6741;66180;-83
2022/05/27 13:06:12;;;;;;;1.63;1.37;;;24.50;37.10;;;;;;20915;6742;121205;-85
2022/05/27 13:08:51;;;;;;;1.83;1.10;;;24.40;37.60;;;;;;20932;6742;117242;-84
2022/05/27 13:11:37;;;;;;;2.90;1.17;;;24.20;37.60;;;;;;20766;6798;117555;-86
2022/05/27 13:14:16;;;;;;;2.00;1.10;;;24.10;37.60;;;;;;20954;6742;143088;-87
2022/05/27 13:16:56;;;;;;;1.00;1.00;;;24.10;37.90;;;;;;20940;6742;117103;-85
2022/05/27 13:19:33;;;;;;;2.07;1.10;;;24.10;38.20;;;;;;20972;6742;116273;-85
2022/05/27 13:22:13;;;;;;;1.27;1.07;;;24.20;38.00;;;;;;20808;6742;117899;-87
2022/05/27 13:24:52;;;;;;;1.77;1.10;;;24.20;37.80;;;;;;20967;6742;121748;-85
2022/05/27 13:27:27;;;;;;;1.50;1.07;;;24.30;37.60;;;;;;20757;6742;305965;-86
2022/05/27 13:30:01;;;;;;;1.20;1.10;;;24.60;36.40;;;;;;20975;6742;116250;-83
2022/05/27 13:33:00;;;;;;;1.10;1.10;;;24.70;36.20;;;;;;20562;6742;279884;-86
2022/05/27 13:35:36;;;;;;;1.43;1.10;;;25.40;35.70;;;;;;20761;6742;275782;-85
2022/05/27 13:38:11;;;;;;;2.60;1.10;;;25.30;35.60;;;;;;20732;6742;305718;-84
2022/05/27 13:40:47;;;;;;;3.57;1.27;;;25.60;35.60;;;;;;20906;6742;118394;-83
2022/05/27 13:43:26;;;;;;;3.77;1.10;;;25.40;35.50;;;;;;20935;6742;116663;-84
2022/05/27 13:46:02;;;;;;;1.00;1.00;;;25.00;36.00;;;;;;20931;6742;117412;-84
2022/05/27 13:48:40;;;;;;;3.37;1.30;;;24.50;36.40;;;;;;20722;6742;287946;-84
2022/05/27 13:51:16;;;;;;;1.50;1.12;;;24.50;35.80;;;;;;20647;6742;319415;-84
2022/05/27 13:53:51;;;;;;;0.90;0.90;;;24.70;35.80;;;;;;20931;6742;117630;-84
2022/05/27 13:56:34;;;;;;;1.37;1.13;;;24.30;36.70;;;;;;20700;6742;307032;-84